sensor_id;sensor_type;location;lat;lon;timestamp;P1;durP1;ratioP1;P2;durP2;ratioP2
15946;SDS011;8072;52.554;7.966;2023-07-29T00:01:43;15.18;;;10.20;;
15946;SDS011;8072;52.554;7.966;2023-07-29T00:04:09;13.45;;;9.52;;
15946;SDS011;8072;52.554;7.966;2023-07-29T00:06:35;17.50;;;9.80;;
15946;SDS011;8072;52.554;7.966;2023-07-29T00:09:01;13.15;;;8.65;;
15946;SDS011;8072;52.554;7.966;2023-07-29T00:11:28;12.50;;;8.68;;
15946;SDS011;8072;52.554;7.966;2023-07-29T00:13:53;12.18;;;8.48;;
15946;SDS011;8072;52.554;7.966;2023-07-29T00:16:19;11.90;;;8.15;;
15946;SDS011;8072;52.554;7.966;2023-07-29T00:18:48;11.07;;;8.25;;
15946;SDS011;8072;52.554;7.966;2023-07-29T00:21:15;11.70;;;8.77;;
15946;SDS011;8072;52.554;7.966;2023-07-29T00:23:41;11.52;;;8.30;;
15946;SDS011;8072;52.554;7.966;2023-07-29T00:26:07;11.18;;;7.30;;
15946;SDS011;8072;52.554;7.966;2023-07-29T00:28:33;11.55;;;8.00;;
15946;SDS011;8072;52.554;7.966;2023-07-29T00:30:58;10.20;;;7.97;;
15946;SDS011;8072;52.554;7.966;2023-07-29T00:33:24;11.45;;;8.63;;
15946;SDS011;8072;52.554;7.966;2023-07-29T00:35:50;12.30;;;8.77;;
15946;SDS011;8072;52.554;7.966;2023-07-29T00:38:16;10.48;;;8.48;;
15946;SDS011;8072;52.554;7.966;2023-07-29T00:40:41;9.82;;;7.80;;
15946;SDS011;8072;52.554;7.966;2023-07-29T00:43:07;9.52;;;7.25;;
15946;SDS011;8072;52.554;7.966;2023-07-29T00:45:33;10.48;;;7.90;;
15946;SDS011;8072;52.554;7.966;2023-07-29T00:47:59;12.70;;;8.15;;
15946;SDS011;8072;52.554;7.966;2023-07-29T00:50:26;9.63;;;7.53;;
15946;SDS011;8072;52.554;7.966;2023-07-29T00:52:54;9.40;;;7.20;;
15946;SDS011;8072;52.554;7.966;2023-07-29T00:55:20;8.30;;;6.68;;
15946;SDS011;8072;52.554;7.966;2023-07-29T00:57:46;9.43;;;7.38;;
15946;SDS011;8072;52.554;7.966;2023-07-29T01:00:14;10.48;;;7.18;;
15946;SDS011;8072;52.554;7.966;2023-07-29T01:02:41;8.95;;;6.38;;
15946;SDS011;8072;52.554;7.966;2023-07-29T01:05:08;8.90;;;6.50;;
15946;SDS011;8072;52.554;7.966;2023-07-29T01:13:14;9.40;;;7.03;;
15946;SDS011;8072;52.554;7.966;2023-07-29T01:16:04;8.57;;;6.22;;
15946;SDS011;8072;52.554;7.966;2023-07-29T01:18:38;11.40;;;6.70;;
15946;SDS011;8072;52.554;7.966;2023-07-29T01:21:07;10.20;;;6.63;;
15946;SDS011;8072;52.554;7.966;2023-07-29T01:23:34;10.00;;;6.75;;
15946;SDS011;8072;52.554;7.966;2023-07-29T01:26:01;9.80;;;7.40;;
15946;SDS011;8072;52.554;7.966;2023-07-29T01:28:28;11.03;;;7.50;;
15946;SDS011;8072;52.554;7.966;2023-07-29T01:31:13;10.97;;;6.83;;
15946;SDS011;8072;52.554;7.966;2023-07-29T01:33:42;9.60;;;6.85;;
15946;SDS011;8072;52.554;7.966;2023-07-29T01:36:18;8.73;;;6.97;;
15946;SDS011;8072;52.554;7.966;2023-07-29T01:38:48;10.73;;;6.80;;
15946;SDS011;8072;52.554;7.966;2023-07-29T01:41:16;7.73;;;5.93;;
15946;SDS011;8072;52.554;7.966;2023-07-29T01:43:43;8.05;;;6.13;;
15946;SDS011;8072;52.554;7.966;2023-07-29T01:46:10;8.10;;;6.83;;
15946;SDS011;8072;52.554;7.966;2023-07-29T01:48:39;9.93;;;6.82;;
15946;SDS011;8072;52.554;7.966;2023-07-29T01:51:05;8.47;;;6.50;;
15946;SDS011;8072;52.554;7.966;2023-07-29T01:53:32;9.00;;;6.80;;
15946;SDS011;8072;52.554;7.966;2023-07-29T01:55:58;8.77;;;6.80;;
15946;SDS011;8072;52.554;7.966;2023-07-29T01:58:24;8.60;;;6.00;;
15946;SDS011;8072;52.554;7.966;2023-07-29T02:00:50;8.47;;;6.60;;
15946;SDS011;8072;52.554;7.966;2023-07-29T02:03:15;7.97;;;6.37;;
15946;SDS011;8072;52.554;7.966;2023-07-29T02:05:41;8.98;;;6.00;;
15946;SDS011;8072;52.554;7.966;2023-07-29T02:08:08;6.87;;;5.40;;
15946;SDS011;8072;52.554;7.966;2023-07-29T02:10:35;9.23;;;6.10;;
15946;SDS011;8072;52.554;7.966;2023-07-29T02:13:01;9.23;;;6.10;;
15946;SDS011;8072;52.554;7.966;2023-07-29T02:15:26;9.50;;;5.60;;
15946;SDS011;8072;52.554;7.966;2023-07-29T02:17:53;7.60;;;6.40;;
15946;SDS011;8072;52.554;7.966;2023-07-29T02:20:19;8.53;;;6.60;;
15946;SDS011;8072;52.554;7.966;2023-07-29T02:22:44;7.73;;;6.17;;
15946;SDS011;8072;52.554;7.966;2023-07-29T02:25:10;11.63;;;6.30;;
15946;SDS011;8072;52.554;7.966;2023-07-29T02:27:36;9.20;;;6.00;;
15946;SDS011;8072;52.554;7.966;2023-07-29T02:30:02;8.63;;;6.17;;
15946;SDS011;8072;52.554;7.966;2023-07-29T02:32:28;7.70;;;5.73;;
15946;SDS011;8072;52.554;7.966;2023-07-29T02:34:54;8.87;;;5.40;;
15946;SDS011;8072;52.554;7.966;2023-07-29T02:37:20;6.87;;;5.93;;
15946;SDS011;8072;52.554;7.966;2023-07-29T02:39:46;10.20;;;6.70;;
15946;SDS011;8072;52.554;7.966;2023-07-29T02:42:11;8.20;;;6.60;;
15946;SDS011;8072;52.554;7.966;2023-07-29T02:44:37;8.80;;;6.47;;
15946;SDS011;8072;52.554;7.966;2023-07-29T02:47:05;10.40;;;6.27;;
15946;SDS011;8072;52.554;7.966;2023-07-29T02:49:31;10.73;;;7.30;;
15946;SDS011;8072;52.554;7.966;2023-07-29T02:51:57;8.40;;;6.73;;
15946;SDS011;8072;52.554;7.966;2023-07-29T02:54:22;8.57;;;6.43;;
15946;SDS011;8072;52.554;7.966;2023-07-29T02:56:49;11.17;;;7.23;;
15946;SDS011;8072;52.554;7.966;2023-07-29T02:59:15;11.47;;;7.47;;
15946;SDS011;8072;52.554;7.966;2023-07-29T03:01:41;8.23;;;7.03;;
15946;SDS011;8072;52.554;7.966;2023-07-29T03:04:07;14.13;;;8.13;;
15946;SDS011;8072;52.554;7.966;2023-07-29T03:06:33;10.57;;;7.40;;
15946;SDS011;8072;52.554;7.966;2023-07-29T03:08:59;12.37;;;8.47;;
15946;SDS011;8072;52.554;7.966;2023-07-29T03:11:25;10.80;;;7.50;;
15946;SDS011;8072;52.554;7.966;2023-07-29T03:13:50;11.03;;;7.60;;
15946;SDS011;8072;52.554;7.966;2023-07-29T03:16:16;12.67;;;7.23;;
15946;SDS011;8072;52.554;7.966;2023-07-29T03:18:43;10.73;;;7.70;;
15946;SDS011;8072;52.554;7.966;2023-07-29T03:21:10;11.10;;;7.57;;
15946;SDS011;8072;52.554;7.966;2023-07-29T03:23:36;10.33;;;7.33;;
15946;SDS011;8072;52.554;7.966;2023-07-29T03:26:02;9.50;;;7.23;;
15946;SDS011;8072;52.554;7.966;2023-07-29T03:28:34;11.80;;;8.03;;
15946;SDS011;8072;52.554;7.966;2023-07-29T03:31:10;11.43;;;7.90;;
15946;SDS011;8072;52.554;7.966;2023-07-29T03:33:36;11.20;;;8.40;;
15946;SDS011;8072;52.554;7.966;2023-07-29T03:36:02;11.23;;;8.53;;
15946;SDS011;8072;52.554;7.966;2023-07-29T03:38:28;12.63;;;8.90;;
15946;SDS011;8072;52.554;7.966;2023-07-29T03:40:53;13.20;;;9.20;;
15946;SDS011;8072;52.554;7.966;2023-07-29T03:43:19;13.50;;;9.93;;
15946;SDS011;8072;52.554;7.966;2023-07-29T03:45:45;12.70;;;9.77;;
15946;SDS011;8072;52.554;7.966;2023-07-29T03:48:11;17.00;;;11.10;;
15946;SDS011;8072;52.554;7.966;2023-07-29T03:50:36;16.77;;;10.90;;
15946;SDS011;8072;52.554;7.966;2023-07-29T03:53:03;18.47;;;11.73;;
15946;SDS011;8072;52.554;7.966;2023-07-29T03:55:29;16.87;;;11.70;;
15946;SDS011;8072;52.554;7.966;2023-07-29T03:57:58;15.73;;;12.20;;
15946;SDS011;8072;52.554;7.966;2023-07-29T04:00:25;19.23;;;13.17;;
15946;SDS011;8072;52.554;7.966;2023-07-29T04:02:51;19.70;;;13.57;;
15946;SDS011;8072;52.554;7.966;2023-07-29T04:05:17;20.57;;;14.57;;
15946;SDS011;8072;52.554;7.966;2023-07-29T04:07:43;20.30;;;15.50;;
15946;SDS011;8072;52.554;7.966;2023-07-29T04:10:09;21.17;;;16.57;;
15946;SDS011;8072;52.554;7.966;2023-07-29T04:12:35;21.00;;;16.07;;
15946;SDS011;8072;52.554;7.966;2023-07-29T04:15:01;22.57;;;16.23;;
15946;SDS011;8072;52.554;7.966;2023-07-29T04:17:27;21.90;;;17.13;;
15946;SDS011;8072;52.554;7.966;2023-07-29T04:19:53;18.30;;;15.93;;
15946;SDS011;8072;52.554;7.966;2023-07-29T04:22:19;24.30;;;16.20;;
15946;SDS011;8072;52.554;7.966;2023-07-29T04:24:44;20.23;;;16.20;;
15946;SDS011;8072;52.554;7.966;2023-07-29T04:27:11;19.13;;;15.20;;
15946;SDS011;8072;52.554;7.966;2023-07-29T04:29:37;22.47;;;16.53;;
15946;SDS011;8072;52.554;7.966;2023-07-29T04:32:03;20.37;;;15.57;;
15946;SDS011;8072;52.554;7.966;2023-07-29T04:34:30;19.77;;;15.37;;
15946;SDS011;8072;52.554;7.966;2023-07-29T04:36:56;20.53;;;15.20;;
15946;SDS011;8072;52.554;7.966;2023-07-29T04:39:22;21.38;;;16.00;;
15946;SDS011;8072;52.554;7.966;2023-07-29T04:41:48;21.67;;;15.80;;
15946;SDS011;8072;52.554;7.966;2023-07-29T04:44:14;20.20;;;15.70;;
15946;SDS011;8072;52.554;7.966;2023-07-29T04:46:39;19.90;;;15.43;;
15946;SDS011;8072;52.554;7.966;2023-07-29T04:49:05;18.90;;;15.60;;
15946;SDS011;8072;52.554;7.966;2023-07-29T04:51:31;21.07;;;15.43;;
15946;SDS011;8072;52.554;7.966;2023-07-29T04:53:57;19.30;;;15.27;;
15946;SDS011;8072;52.554;7.966;2023-07-29T04:56:23;21.83;;;15.97;;
15946;SDS011;8072;52.554;7.966;2023-07-29T04:58:49;19.73;;;14.87;;
15946;SDS011;8072;52.554;7.966;2023-07-29T05:01:15;19.20;;;14.43;;
15946;SDS011;8072;52.554;7.966;2023-07-29T05:03:41;19.47;;;14.57;;
15946;SDS011;8072;52.554;7.966;2023-07-29T05:06:06;20.57;;;15.27;;
15946;SDS011;8072;52.554;7.966;2023-07-29T05:08:32;21.37;;;15.00;;
15946;SDS011;8072;52.554;7.966;2023-07-29T05:10:58;21.97;;;15.37;;
15946;SDS011;8072;52.554;7.966;2023-07-29T05:13:24;20.80;;;14.53;;
15946;SDS011;8072;52.554;7.966;2023-07-29T05:15:49;19.70;;;14.87;;
15946;SDS011;8072;52.554;7.966;2023-07-29T05:18:16;21.63;;;15.70;;
15946;SDS011;8072;52.554;7.966;2023-07-29T05:20:42;19.67;;;14.53;;
15946;SDS011;8072;52.554;7.966;2023-07-29T05:23:08;20.43;;;15.33;;
15946;SDS011;8072;52.554;7.966;2023-07-29T05:25:34;21.58;;;14.35;;
15946;SDS011;8072;52.554;7.966;2023-07-29T05:28:00;21.00;;;15.40;;
15946;SDS011;8072;52.554;7.966;2023-07-29T05:30:26;19.35;;;14.68;;
15946;SDS011;8072;52.554;7.966;2023-07-29T05:32:56;22.00;;;14.97;;
15946;SDS011;8072;52.554;7.966;2023-07-29T05:35:22;21.57;;;14.77;;
15946;SDS011;8072;52.554;7.966;2023-07-29T05:37:48;18.90;;;15.07;;
15946;SDS011;8072;52.554;7.966;2023-07-29T05:40:14;18.13;;;13.35;;
15946;SDS011;8072;52.554;7.966;2023-07-29T05:42:40;17.05;;;13.65;;
15946;SDS011;8072;52.554;7.966;2023-07-29T05:45:06;19.73;;;14.03;;
15946;SDS011;8072;52.554;7.966;2023-07-29T05:47:32;19.70;;;13.35;;
15946;SDS011;8072;52.554;7.966;2023-07-29T05:49:58;19.73;;;13.37;;
15946;SDS011;8072;52.554;7.966;2023-07-29T05:52:25;19.02;;;13.77;;
15946;SDS011;8072;52.554;7.966;2023-07-29T05:54:50;20.90;;;13.27;;
15946;SDS011;8072;52.554;7.966;2023-07-29T05:57:16;18.30;;;13.03;;
15946;SDS011;8072;52.554;7.966;2023-07-29T05:59:42;20.67;;;13.60;;
15946;SDS011;8072;52.554;7.966;2023-07-29T06:02:07;18.83;;;13.40;;
15946;SDS011;8072;52.554;7.966;2023-07-29T06:04:33;16.73;;;13.07;;
15946;SDS011;8072;52.554;7.966;2023-07-29T06:06:59;15.30;;;12.05;;
15946;SDS011;8072;52.554;7.966;2023-07-29T06:09:25;19.67;;;13.23;;
15946;SDS011;8072;52.554;7.966;2023-07-29T06:11:51;15.88;;;12.70;;
15946;SDS011;8072;52.554;7.966;2023-07-29T06:14:16;17.58;;;12.70;;
15946;SDS011;8072;52.554;7.966;2023-07-29T06:16:42;16.73;;;12.52;;
15946;SDS011;8072;52.554;7.966;2023-07-29T06:19:08;16.70;;;11.55;;
15946;SDS011;8072;52.554;7.966;2023-07-29T06:21:34;16.08;;;11.95;;
15946;SDS011;8072;52.554;7.966;2023-07-29T06:24:00;16.25;;;12.25;;
15946;SDS011;8072;52.554;7.966;2023-07-29T06:26:26;16.20;;;11.88;;
15946;SDS011;8072;52.554;7.966;2023-07-29T06:28:52;17.92;;;12.35;;
15946;SDS011;8072;52.554;7.966;2023-07-29T06:31:18;17.08;;;11.30;;
15946;SDS011;8072;52.554;7.966;2023-07-29T06:33:44;14.15;;;11.52;;
15946;SDS011;8072;52.554;7.966;2023-07-29T06:36:09;16.92;;;12.55;;
15946;SDS011;8072;52.554;7.966;2023-07-29T06:38:35;16.88;;;12.48;;
15946;SDS011;8072;52.554;7.966;2023-07-29T06:41:02;18.15;;;13.10;;
15946;SDS011;8072;52.554;7.966;2023-07-29T06:43:27;15.73;;;12.32;;
15946;SDS011;8072;52.554;7.966;2023-07-29T06:45:53;18.20;;;13.13;;
15946;SDS011;8072;52.554;7.966;2023-07-29T06:48:20;20.33;;;13.07;;
15946;SDS011;8072;52.554;7.966;2023-07-29T06:50:46;17.60;;;13.13;;
15946;SDS011;8072;52.554;7.966;2023-07-29T06:53:11;20.55;;;13.77;;
15946;SDS011;8072;52.554;7.966;2023-07-29T06:55:37;14.57;;;11.38;;
15946;SDS011;8072;52.554;7.966;2023-07-29T06:58:04;16.73;;;11.95;;
15946;SDS011;8072;52.554;7.966;2023-07-29T07:00:29;15.80;;;10.73;;
15946;SDS011;8072;52.554;7.966;2023-07-29T07:02:55;12.93;;;9.73;;
15946;SDS011;8072;52.554;7.966;2023-07-29T07:05:21;14.20;;;10.18;;
15946;SDS011;8072;52.554;7.966;2023-07-29T07:07:46;15.77;;;10.30;;
15946;SDS011;8072;52.554;7.966;2023-07-29T07:10:12;12.90;;;9.93;;
15946;SDS011;8072;52.554;7.966;2023-07-29T07:12:39;15.70;;;9.80;;
15946;SDS011;8072;52.554;7.966;2023-07-29T07:15:05;12.10;;;9.52;;
15946;SDS011;8072;52.554;7.966;2023-07-29T07:17:31;16.17;;;10.50;;
15946;SDS011;8072;52.554;7.966;2023-07-29T07:19:56;14.07;;;10.20;;
15946;SDS011;8072;52.554;7.966;2023-07-29T07:22:22;18.48;;;10.98;;
15946;SDS011;8072;52.554;7.966;2023-07-29T07:24:48;13.75;;;10.95;;
15946;SDS011;8072;52.554;7.966;2023-07-29T07:27:14;16.90;;;12.02;;
15946;SDS011;8072;52.554;7.966;2023-07-29T07:29:40;14.10;;;10.93;;
15946;SDS011;8072;52.554;7.966;2023-07-29T07:32:06;16.77;;;10.27;;
15946;SDS011;8072;52.554;7.966;2023-07-29T07:34:31;17.25;;;10.23;;
15946;SDS011;8072;52.554;7.966;2023-07-29T07:36:58;12.98;;;10.07;;
15946;SDS011;8072;52.554;7.966;2023-07-29T07:39:25;14.02;;;9.73;;
15946;SDS011;8072;52.554;7.966;2023-07-29T07:41:51;16.00;;;10.32;;
15946;SDS011;8072;52.554;7.966;2023-07-29T07:44:17;16.10;;;10.75;;
15946;SDS011;8072;52.554;7.966;2023-07-29T07:46:44;17.33;;;12.13;;
15946;SDS011;8072;52.554;7.966;2023-07-29T07:49:10;15.07;;;11.50;;
15946;SDS011;8072;52.554;7.966;2023-07-29T07:51:37;14.52;;;11.40;;
15946;SDS011;8072;52.554;7.966;2023-07-29T07:54:04;16.42;;;11.70;;
15946;SDS011;8072;52.554;7.966;2023-07-29T07:56:29;16.40;;;11.90;;
15946;SDS011;8072;52.554;7.966;2023-07-29T07:58:55;15.00;;;10.53;;
15946;SDS011;8072;52.554;7.966;2023-07-29T08:01:21;12.63;;;8.83;;
15946;SDS011;8072;52.554;7.966;2023-07-29T08:03:47;7.85;;;6.57;;
15946;SDS011;8072;52.554;7.966;2023-07-29T08:06:12;10.87;;;7.30;;
15946;SDS011;8072;52.554;7.966;2023-07-29T08:08:38;9.27;;;6.97;;
15946;SDS011;8072;52.554;7.966;2023-07-29T08:11:04;9.57;;;6.72;;
15946;SDS011;8072;52.554;7.966;2023-07-29T08:13:30;8.00;;;6.20;;
15946;SDS011;8072;52.554;7.966;2023-07-29T08:15:56;8.82;;;5.68;;
15946;SDS011;8072;52.554;7.966;2023-07-29T08:18:22;6.38;;;4.38;;
15946;SDS011;8072;52.554;7.966;2023-07-29T08:20:57;6.88;;;4.70;;
15946;SDS011;8072;52.554;7.966;2023-07-29T08:23:27;5.37;;;3.53;;
15946;SDS011;8072;52.554;7.966;2023-07-29T08:25:53;3.35;;;3.05;;
15946;SDS011;8072;52.554;7.966;2023-07-29T08:28:21;4.20;;;2.42;;
15946;SDS011;8072;52.554;7.966;2023-07-29T08:30:47;4.18;;;2.53;;
15946;SDS011;8072;52.554;7.966;2023-07-29T08:33:13;3.15;;;2.38;;
15946;SDS011;8072;52.554;7.966;2023-07-29T08:35:39;3.22;;;2.28;;
15946;SDS011;8072;52.554;7.966;2023-07-29T08:38:05;3.10;;;2.03;;
15946;SDS011;8072;52.554;7.966;2023-07-29T08:40:31;7.38;;;1.92;;
15946;SDS011;8072;52.554;7.966;2023-07-29T08:42:58;1.83;;;1.67;;
15946;SDS011;8072;52.554;7.966;2023-07-29T08:45:30;1.92;;;1.63;;
15946;SDS011;8072;52.554;7.966;2023-07-29T08:47:59;5.23;;;1.80;;
15946;SDS011;8072;52.554;7.966;2023-07-29T08:50:30;1.90;;;1.70;;
15946;SDS011;8072;52.554;7.966;2023-07-29T08:52:58;2.67;;;1.88;;
15946;SDS011;8072;52.554;7.966;2023-07-29T08:55:25;2.83;;;2.25;;
15946;SDS011;8072;52.554;7.966;2023-07-29T08:57:51;2.45;;;2.22;;
15946;SDS011;8072;52.554;7.966;2023-07-29T09:00:18;4.40;;;2.00;;
15946;SDS011;8072;52.554;7.966;2023-07-29T09:02:44;2.88;;;2.08;;
15946;SDS011;8072;52.554;7.966;2023-07-29T09:05:10;3.45;;;1.80;;
15946;SDS011;8072;52.554;7.966;2023-07-29T09:07:36;3.10;;;1.95;;
15946;SDS011;8072;52.554;7.966;2023-07-29T09:10:03;1.95;;;1.60;;
15946;SDS011;8072;52.554;7.966;2023-07-29T09:12:29;2.20;;;2.00;;
15946;SDS011;8072;52.554;7.966;2023-07-29T09:14:55;2.53;;;1.60;;
15946;SDS011;8072;52.554;7.966;2023-07-29T09:17:21;3.97;;;1.58;;
15946;SDS011;8072;52.554;7.966;2023-07-29T09:19:48;2.00;;;1.33;;
15946;SDS011;8072;52.554;7.966;2023-07-29T09:22:18;3.25;;;1.65;;
15946;SDS011;8072;52.554;7.966;2023-07-29T09:24:45;2.42;;;1.80;;
15946;SDS011;8072;52.554;7.966;2023-07-29T09:27:23;1.88;;;1.73;;
15946;SDS011;8072;52.554;7.966;2023-07-29T09:29:53;1.77;;;1.40;;
15946;SDS011;8072;52.554;7.966;2023-07-29T09:32:19;2.97;;;1.38;;
15946;SDS011;8072;52.554;7.966;2023-07-29T09:34:46;1.67;;;1.55;;
15946;SDS011;8072;52.554;7.966;2023-07-29T09:37:22;3.00;;;1.55;;
15946;SDS011;8072;52.554;7.966;2023-07-29T09:39:48;2.88;;;1.80;;
15946;SDS011;8072;52.554;7.966;2023-07-29T09:42:18;5.50;;;2.17;;
15946;SDS011;8072;52.554;7.966;2023-07-29T09:44:45;2.42;;;1.75;;
15946;SDS011;8072;52.554;7.966;2023-07-29T09:47:24;2.05;;;1.60;;
15946;SDS011;8072;52.554;7.966;2023-07-29T09:49:52;1.63;;;1.40;;
15946;SDS011;8072;52.554;7.966;2023-07-29T09:52:18;2.22;;;1.60;;
15946;SDS011;8072;52.554;7.966;2023-07-29T09:54:46;2.60;;;1.88;;
15946;SDS011;8072;52.554;7.966;2023-07-29T09:57:16;2.40;;;1.50;;
15946;SDS011;8072;52.554;7.966;2023-07-29T09:59:52;2.70;;;1.77;;
15946;SDS011;8072;52.554;7.966;2023-07-29T10:02:22;3.72;;;1.98;;
15946;SDS011;8072;52.554;7.966;2023-07-29T10:04:50;2.50;;;1.83;;
15946;SDS011;8072;52.554;7.966;2023-07-29T10:07:17;2.72;;;1.70;;
15946;SDS011;8072;52.554;7.966;2023-07-29T10:09:45;3.90;;;2.10;;
15946;SDS011;8072;52.554;7.966;2023-07-29T10:12:11;3.88;;;2.00;;
15946;SDS011;8072;52.554;7.966;2023-07-29T10:14:38;2.00;;;1.70;;
15946;SDS011;8072;52.554;7.966;2023-07-29T10:17:06;2.47;;;1.90;;
15946;SDS011;8072;52.554;7.966;2023-07-29T10:19:34;3.53;;;1.88;;
15946;SDS011;8072;52.554;7.966;2023-07-29T10:22:01;3.30;;;2.00;;
15946;SDS011;8072;52.554;7.966;2023-07-29T10:24:30;3.75;;;1.88;;
15946;SDS011;8072;52.554;7.966;2023-07-29T10:26:57;3.65;;;1.80;;
15946;SDS011;8072;52.554;7.966;2023-07-29T10:29:24;2.35;;;1.88;;
15946;SDS011;8072;52.554;7.966;2023-07-29T10:31:55;3.38;;;2.10;;
15946;SDS011;8072;52.554;7.966;2023-07-29T10:34:22;2.75;;;1.90;;
15946;SDS011;8072;52.554;7.966;2023-07-29T10:36:50;3.47;;;1.90;;
15946;SDS011;8072;52.554;7.966;2023-07-29T10:39:16;2.05;;;1.77;;
15946;SDS011;8072;52.554;7.966;2023-07-29T10:42:04;3.58;;;2.05;;
15946;SDS011;8072;52.554;7.966;2023-07-29T10:47:18;2.00;;;1.38;;
15946;SDS011;8072;52.554;7.966;2023-07-29T10:49:49;4.45;;;1.50;;
15946;SDS011;8072;52.554;7.966;2023-07-29T10:55:00;1.75;;;1.25;;
15946;SDS011;8072;52.554;7.966;2023-07-29T10:57:36;2.35;;;1.38;;
15946;SDS011;8072;52.554;7.966;2023-07-29T11:00:03;1.45;;;1.13;;
15946;SDS011;8072;52.554;7.966;2023-07-29T11:05:07;4.32;;;1.20;;
15946;SDS011;8072;52.554;7.966;2023-07-29T11:07:46;1.85;;;1.48;;
15946;SDS011;8072;52.554;7.966;2023-07-29T11:10:13;4.28;;;1.60;;
15946;SDS011;8072;52.554;7.966;2023-07-29T11:12:49;3.05;;;1.50;;
15946;SDS011;8072;52.554;7.966;2023-07-29T11:20:18;1.98;;;1.38;;
15946;SDS011;8072;52.554;7.966;2023-07-29T11:22:45;2.13;;;1.40;;
15946;SDS011;8072;52.554;7.966;2023-07-29T11:25:12;3.55;;;1.40;;
15946;SDS011;8072;52.554;7.966;2023-07-29T11:27:40;2.28;;;1.20;;
15946;SDS011;8072;52.554;7.966;2023-07-29T11:30:09;1.63;;;1.30;;
15946;SDS011;8072;52.554;7.966;2023-07-29T11:32:36;4.50;;;1.30;;
15946;SDS011;8072;52.554;7.966;2023-07-29T11:35:07;2.90;;;1.38;;
15946;SDS011;8072;52.554;7.966;2023-07-29T11:37:36;3.85;;;1.30;;
15946;SDS011;8072;52.554;7.966;2023-07-29T11:40:03;1.75;;;1.48;;
15946;SDS011;8072;52.554;7.966;2023-07-29T11:42:33;3.55;;;1.80;;
15946;SDS011;8072;52.554;7.966;2023-07-29T11:45:00;4.60;;;1.50;;
15946;SDS011;8072;52.554;7.966;2023-07-29T11:47:26;3.85;;;1.70;;
15946;SDS011;8072;52.554;7.966;2023-07-29T11:49:52;2.25;;;1.92;;
15946;SDS011;8072;52.554;7.966;2023-07-29T11:52:18;4.45;;;1.98;;
15946;SDS011;8072;52.554;7.966;2023-07-29T11:54:48;2.42;;;1.65;;
15946;SDS011;8072;52.554;7.966;2023-07-29T11:57:14;1.90;;;1.70;;
15946;SDS011;8072;52.554;7.966;2023-07-29T11:59:41;3.03;;;2.00;;
15946;SDS011;8072;52.554;7.966;2023-07-29T12:02:11;2.45;;;1.83;;
15946;SDS011;8072;52.554;7.966;2023-07-29T12:04:39;3.38;;;1.98;;
15946;SDS011;8072;52.554;7.966;2023-07-29T12:07:07;3.95;;;1.95;;
15946;SDS011;8072;52.554;7.966;2023-07-29T12:09:35;2.75;;;1.75;;
15946;SDS011;8072;52.554;7.966;2023-07-29T12:12:04;2.03;;;1.92;;
15946;SDS011;8072;52.554;7.966;2023-07-29T12:14:31;4.07;;;1.80;;
15946;SDS011;8072;52.554;7.966;2023-07-29T12:16:59;2.08;;;1.90;;
15946;SDS011;8072;52.554;7.966;2023-07-29T12:19:31;1.73;;;1.50;;
15946;SDS011;8072;52.554;7.966;2023-07-29T12:22:01;2.70;;;1.92;;
15946;SDS011;8072;52.554;7.966;2023-07-29T12:24:32;1.63;;;1.45;;
15946;SDS011;8072;52.554;7.966;2023-07-29T12:26:59;2.20;;;1.60;;
15946;SDS011;8072;52.554;7.966;2023-07-29T12:29:25;2.72;;;1.95;;
15946;SDS011;8072;52.554;7.966;2023-07-29T12:32:03;3.90;;;1.85;;
15946;SDS011;8072;52.554;7.966;2023-07-29T12:34:30;2.05;;;1.85;;
15946;SDS011;8072;52.554;7.966;2023-07-29T12:36:57;2.58;;;1.67;;
15946;SDS011;8072;52.554;7.966;2023-07-29T12:41:57;2.13;;;1.73;;
15946;SDS011;8072;52.554;7.966;2023-07-29T12:44:26;2.88;;;1.88;;
15946;SDS011;8072;52.554;7.966;2023-07-29T12:46:55;2.95;;;1.80;;
15946;SDS011;8072;52.554;7.966;2023-07-29T12:49:21;2.35;;;2.03;;
15946;SDS011;8072;52.554;7.966;2023-07-29T12:51:47;3.90;;;2.10;;
15946;SDS011;8072;52.554;7.966;2023-07-29T12:54:13;2.40;;;2.20;;
15946;SDS011;8072;52.554;7.966;2023-07-29T12:56:39;3.08;;;2.15;;
15946;SDS011;8072;52.554;7.966;2023-07-29T12:59:05;2.55;;;2.35;;
15946;SDS011;8072;52.554;7.966;2023-07-29T13:01:31;2.28;;;2.08;;
15946;SDS011;8072;52.554;7.966;2023-07-29T13:03:56;3.03;;;2.50;;
15946;SDS011;8072;52.554;7.966;2023-07-29T13:06:22;4.30;;;2.63;;
15946;SDS011;8072;52.554;7.966;2023-07-29T13:08:48;2.67;;;2.42;;
15946;SDS011;8072;52.554;7.966;2023-07-29T13:11:14;2.45;;;2.25;;
15946;SDS011;8072;52.554;7.966;2023-07-29T13:13:40;2.78;;;2.20;;
15946;SDS011;8072;52.554;7.966;2023-07-29T13:16:06;2.50;;;2.30;;
15946;SDS011;8072;52.554;7.966;2023-07-29T13:18:32;5.28;;;2.45;;
15946;SDS011;8072;52.554;7.966;2023-07-29T13:20:58;4.10;;;2.58;;
15946;SDS011;8072;52.554;7.966;2023-07-29T13:23:25;2.63;;;2.20;;
15946;SDS011;8072;52.554;7.966;2023-07-29T13:25:51;3.88;;;1.90;;
15946;SDS011;8072;52.554;7.966;2023-07-29T13:28:17;4.53;;;2.10;;
15946;SDS011;8072;52.554;7.966;2023-07-29T13:30:44;3.10;;;2.58;;
15946;SDS011;8072;52.554;7.966;2023-07-29T13:33:10;3.42;;;2.30;;
15946;SDS011;8072;52.554;7.966;2023-07-29T13:35:36;2.40;;;2.20;;
15946;SDS011;8072;52.554;7.966;2023-07-29T13:38:02;2.85;;;2.13;;
15946;SDS011;8072;52.554;7.966;2023-07-29T13:40:28;4.15;;;2.17;;
15946;SDS011;8072;52.554;7.966;2023-07-29T13:42:54;2.53;;;2.20;;
15946;SDS011;8072;52.554;7.966;2023-07-29T13:45:20;2.72;;;2.20;;
15946;SDS011;8072;52.554;7.966;2023-07-29T13:47:47;4.32;;;2.50;;
15946;SDS011;8072;52.554;7.966;2023-07-29T13:50:13;2.17;;;1.90;;
15946;SDS011;8072;52.554;7.966;2023-07-29T13:52:39;3.88;;;2.00;;
15946;SDS011;8072;52.554;7.966;2023-07-29T13:55:05;2.88;;;1.73;;
15946;SDS011;8072;52.554;7.966;2023-07-29T13:57:31;2.10;;;1.90;;
15946;SDS011;8072;52.554;7.966;2023-07-29T13:59:58;2.92;;;2.10;;
15946;SDS011;8072;52.554;7.966;2023-07-29T14:02:24;3.00;;;1.77;;
15946;SDS011;8072;52.554;7.966;2023-07-29T14:04:51;2.33;;;1.70;;
15946;SDS011;8072;52.554;7.966;2023-07-29T14:07:17;1.65;;;1.55;;
15946;SDS011;8072;52.554;7.966;2023-07-29T14:09:43;3.13;;;1.70;;
15946;SDS011;8072;52.554;7.966;2023-07-29T14:12:09;4.05;;;1.92;;
15946;SDS011;8072;52.554;7.966;2023-07-29T14:14:39;2.50;;;2.08;;
15946;SDS011;8072;52.554;7.966;2023-07-29T14:17:05;2.95;;;1.98;;
15946;SDS011;8072;52.554;7.966;2023-07-29T14:19:33;2.28;;;1.92;;
15946;SDS011;8072;52.554;7.966;2023-07-29T14:21:59;2.53;;;1.75;;
15946;SDS011;8072;52.554;7.966;2023-07-29T14:24:25;2.63;;;2.42;;
15946;SDS011;8072;52.554;7.966;2023-07-29T14:26:51;2.53;;;1.88;;
15946;SDS011;8072;52.554;7.966;2023-07-29T14:29:17;2.13;;;1.70;;
15946;SDS011;8072;52.554;7.966;2023-07-29T14:31:42;2.70;;;1.77;;
15946;SDS011;8072;52.554;7.966;2023-07-29T14:34:09;2.05;;;1.60;;
15946;SDS011;8072;52.554;7.966;2023-07-29T14:36:35;3.65;;;1.90;;
15946;SDS011;8072;52.554;7.966;2023-07-29T14:39:01;3.70;;;1.55;;
15946;SDS011;8072;52.554;7.966;2023-07-29T14:41:27;3.03;;;1.90;;
15946;SDS011;8072;52.554;7.966;2023-07-29T14:43:52;4.28;;;1.83;;
15946;SDS011;8072;52.554;7.966;2023-07-29T14:46:18;2.50;;;1.70;;
15946;SDS011;8072;52.554;7.966;2023-07-29T14:48:44;1.83;;;1.45;;
15946;SDS011;8072;52.554;7.966;2023-07-29T14:51:12;3.08;;;1.45;;
15946;SDS011;8072;52.554;7.966;2023-07-29T14:53:38;1.60;;;1.40;;
15946;SDS011;8072;52.554;7.966;2023-07-29T14:56:03;1.40;;;1.30;;
15946;SDS011;8072;52.554;7.966;2023-07-29T14:58:29;1.63;;;1.23;;
15946;SDS011;8072;52.554;7.966;2023-07-29T15:00:55;1.73;;;1.30;;
15946;SDS011;8072;52.554;7.966;2023-07-29T15:03:22;1.50;;;1.13;;
15946;SDS011;8072;52.554;7.966;2023-07-29T15:05:48;2.38;;;1.50;;
15946;SDS011;8072;52.554;7.966;2023-07-29T15:08:14;2.17;;;1.20;;
15946;SDS011;8072;52.554;7.966;2023-07-29T15:10:40;3.08;;;1.40;;
15946;SDS011;8072;52.554;7.966;2023-07-29T15:13:06;1.25;;;1.10;;